createdAt,value
2023-03-16T00:00:24.990Z,3.3
2023-03-16T00:02:31.150Z,3.3
2023-03-16T00:04:37.502Z,3.3
2023-03-16T00:06:43.657Z,3.3
2023-03-16T00:15:11.516Z,3.4
2023-03-16T00:17:17.773Z,3.4
2023-03-16T00:19:24.036Z,3.5
2023-03-16T00:21:30.268Z,3.5
2023-03-16T00:23:36.549Z,3.5
2023-03-16T00:25:42.769Z,3.5
2023-03-16T00:27:48.999Z,3.5
2023-03-16T00:29:58.146Z,3.6
2023-03-16T00:32:04.470Z,3.6
2023-03-16T00:34:10.660Z,3.7
2023-03-16T00:36:16.907Z,3.7
2023-03-16T00:38:23.133Z,3.6
2023-03-16T00:40:29.763Z,3.7
2023-03-16T00:42:35.630Z,3.7
2023-03-16T00:44:44.798Z,3.7
2023-03-16T00:46:51.028Z,3.7
2023-03-16T00:48:57.294Z,3.7
2023-03-16T00:50:01.888Z,3.6
2023-03-16T00:52:08.116Z,3.6
2023-03-16T00:54:14.407Z,3.6
2023-03-16T00:56:21.006Z,3.6
2023-03-16T00:58:29.784Z,3.6
2023-03-16T01:00:36.047Z,3.6
2023-03-16T01:04:48.539Z,3.6
2023-03-16T01:06:54.761Z,3.6
2023-03-16T01:09:01.045Z,3.6
2023-03-16T01:11:07.272Z,3.6
2023-03-16T01:13:16.467Z,3.6
2023-03-16T01:15:22.701Z,3.5
2023-03-16T01:19:35.180Z,3.6
2023-03-16T01:23:47.732Z,3.5
2023-03-16T01:25:53.997Z,3.6
2023-03-16T01:28:03.128Z,3.6
2023-03-16T01:32:15.663Z,3.6
2023-03-16T01:42:49.825Z,3.5
2023-03-16T01:44:56.069Z,3.5
2023-03-16T01:47:02.298Z,3.6
2023-03-16T01:48:06.902Z,3.5
2023-03-16T01:50:13.155Z,3.5
2023-03-16T01:52:19.369Z,3.5
2023-03-16T01:54:25.639Z,3.4
2023-03-16T01:56:34.798Z,3.5
2023-03-16T02:15:33.987Z,3.5
2023-03-16T02:17:40.183Z,3.5
2023-03-16T02:19:46.437Z,3.5
2023-03-16T02:21:52.683Z,3.5
2023-03-16T02:26:08.142Z,3.6
2023-03-16T02:28:14.344Z,3.6
2023-03-16T02:30:20.630Z,3.6
2023-03-16T02:32:26.932Z,3.6
2023-03-16T02:34:33.130Z,3.7
2023-03-16T02:36:39.378Z,3.7
2023-03-16T02:38:45.642Z,3.8
2023-03-16T02:40:54.793Z,3.8
2023-03-16T02:43:01.076Z,3.8
2023-03-16T02:45:07.308Z,3.8
2023-03-16T02:46:11.947Z,3.8
2023-03-16T02:48:18.172Z,3.8
2023-03-16T02:50:24.410Z,3.8
2023-03-16T02:54:39.853Z,3.8
2023-03-16T02:56:46.112Z,3.8
2023-03-16T02:58:52.393Z,3.8
2023-03-16T03:11:32.873Z,3.8
2023-03-16T03:13:39.163Z,3.8
2023-03-16T03:15:45.443Z,3.8
2023-03-16T03:22:04.209Z,3.8
2023-03-16T03:24:13.458Z,3.8
2023-03-16T03:26:19.720Z,3.8
2023-03-16T03:28:25.919Z,3.8
2023-03-16T03:30:32.224Z,3.8
2023-03-16T03:32:38.550Z,3.8
2023-03-16T03:34:44.775Z,3.8
2023-03-16T03:36:51.004Z,3.8
2023-03-16T03:39:00.181Z,3.8
2023-03-16T03:41:06.459Z,3.8
2023-03-16T03:43:12.704Z,3.9
2023-03-16T03:45:32.752Z,3.9
2023-03-16T03:49:45.285Z,3.9
2023-03-16T03:54:00.740Z,3.8
2023-03-16T03:56:06.983Z,3.9
2023-03-16T03:58:13.255Z,3.9
2023-03-16T04:00:19.518Z,3.9
2023-03-16T04:02:25.936Z,3.9
2023-03-16T04:04:32.071Z,3.9
2023-03-16T04:06:42.847Z,3.9
2023-03-16T04:08:49.076Z,3.9
2023-03-16T04:10:55.392Z,3.9
2023-03-16T04:13:01.640Z,3.9
2023-03-16T04:15:07.881Z,3.9
2023-03-16T04:17:14.158Z,3.9
2023-03-16T04:19:20.431Z,3.9
2023-03-16T04:21:29.602Z,3.9
2023-03-16T04:23:35.848Z,3.9
2023-03-16T04:25:42.165Z,3.9
2023-03-16T04:34:07.197Z,3.8
2023-03-16T04:36:16.424Z,3.8
2023-03-16T04:38:22.659Z,3.8
2023-03-16T04:40:29.262Z,3.8
2023-03-16T04:41:33.460Z,3.8
2023-03-16T04:52:07.708Z,3.8
2023-03-16T04:54:13.962Z,3.8
2023-03-16T04:56:20.252Z,3.8
2023-03-16T04:58:26.500Z,3.7
2023-03-16T05:00:32.769Z,3.7
2023-03-16T05:04:48.210Z,3.7
2023-03-16T05:06:54.468Z,3.7
2023-03-16T05:11:06.976Z,3.6
2023-03-16T05:17:25.754Z,3.6
2023-03-16T05:19:34.950Z,3.6
2023-03-16T05:23:47.431Z,3.5
2023-03-16T05:25:53.715Z,3.5
2023-03-16T05:30:06.235Z,3.6
2023-03-16T05:32:12.516Z,3.5
2023-03-16T05:34:21.650Z,3.5
2023-03-16T05:36:28.358Z,3.5
2023-03-16T05:38:34.191Z,3.5
2023-03-16T05:39:38.748Z,3.6
2023-03-16T05:41:45.048Z,3.6
2023-03-16T05:48:06.704Z,3.7
2023-03-16T05:50:12.938Z,3.7
2023-03-16T05:52:19.195Z,3.7
2023-03-16T05:54:25.443Z,3.8
2023-03-16T05:56:31.717Z,3.8
2023-03-16T05:58:37.972Z,3.8
2023-03-16T06:00:44.216Z,3.8
2023-03-16T06:02:53.423Z,3.8
2023-03-16T06:04:59.688Z,3.8
2023-03-16T06:07:05.932Z,3.9
2023-03-16T06:09:12.174Z,3.9
2023-03-16T06:11:18.458Z,3.9
2023-03-16T06:13:24.692Z,4
2023-03-16T06:20:21.349Z,4.1
2023-03-16T06:21:52.715Z,4.1
2023-03-16T06:23:58.964Z,4.2
2023-03-16T06:32:26.969Z,4.3
2023-03-16T06:34:33.217Z,4.3
2023-03-16T06:36:39.485Z,4.4
2023-03-16T06:37:44.062Z,4.4
2023-03-16T06:39:50.346Z,4.4
2023-03-16T06:44:02.896Z,4.4
2023-03-16T06:46:12.178Z,4.4
2023-03-16T06:48:18.362Z,4.4
2023-03-16T06:50:24.643Z,4.4
2023-03-16T06:54:37.202Z,4.4
2023-03-16T06:56:45.850Z,4.5
2023-03-16T06:58:49.780Z,4.5
2023-03-16T07:00:58.998Z,4.5
2023-03-16T07:03:05.119Z,4.5
2023-03-16T07:05:14.230Z,4.5
2023-03-16T07:11:30.233Z,4.6
2023-03-16T07:13:36.434Z,4.6
2023-03-16T07:19:58.125Z,4.8
2023-03-16T07:22:04.393Z,4.8
2023-03-16T07:26:17.020Z,4.8
2023-03-16T07:28:23.278Z,4.8
2023-03-16T07:30:32.370Z,4.8
2023-03-16T07:32:38.751Z,4.8
2023-03-16T07:34:44.864Z,4.9
2023-03-16T07:37:05.083Z,5
2023-03-16T07:39:11.348Z,5
2023-03-16T07:41:17.674Z,5
2023-03-16T07:45:33.049Z,5.1
2023-03-16T07:47:39.339Z,5
2023-03-16T07:49:45.639Z,5
2023-03-16T07:51:51.937Z,5
2023-03-16T07:53:58.124Z,5.1
2023-03-16T07:56:04.315Z,5.1
2023-03-16T07:58:13.456Z,5.1
2023-03-16T08:00:19.627Z,5.1
2023-03-16T08:02:25.858Z,5.1
2023-03-16T08:04:32.177Z,5.1
2023-03-16T08:15:06.110Z,5
2023-03-16T08:31:58.602Z,5.1
2023-03-16T08:33:03.117Z,5.1
2023-03-16T08:35:09.385Z,5.1
2023-03-16T08:37:15.661Z,5.1
2023-03-16T08:39:21.872Z,5.2
2023-03-16T08:45:43.354Z,5.3
2023-03-16T08:47:49.696Z,5.2
2023-03-16T08:49:55.879Z,5.4
2023-03-16T08:52:02.080Z,5.4
2023-03-16T08:54:08.369Z,5.5
2023-03-16T08:57:26.286Z,5.7
2023-03-16T08:58:23.818Z,5.7
2023-03-16T09:00:30.410Z,5.8
2023-03-16T09:02:36.209Z,5.8
2023-03-16T09:04:42.513Z,5.8
2023-03-16T09:06:55.832Z,5.8
2023-03-16T09:08:54.941Z,5.8
2023-03-16T09:11:04.077Z,5.8
2023-03-16T09:13:10.281Z,5.8
2023-03-16T09:15:16.621Z,5.8
2023-03-16T09:17:22.911Z,5.7
2023-03-16T09:21:35.351Z,5.8
2023-03-16T09:25:50.309Z,6.1
2023-03-16T09:27:56.577Z,6.1
2023-03-16T09:31:07.337Z,6.3
2023-03-16T09:33:13.509Z,6.4
2023-03-16T09:35:19.722Z,6.3
2023-03-16T09:37:25.966Z,6.3
2023-03-16T09:39:34.964Z,6.2
2023-03-16T09:41:46.116Z,6.2
2023-03-16T09:43:47.386Z,6.5
2023-03-16T09:46:11.589Z,6.4
2023-03-16T09:54:21.329Z,6.6
2023-03-16T09:56:27.560Z,6.7
2023-03-16T09:58:33.765Z,6.7
2023-03-16T10:00:40.041Z,6.8
2023-03-16T10:02:46.214Z,6.8
2023-03-16T10:04:52.456Z,7
2023-03-16T10:06:58.715Z,7
2023-03-16T10:09:07.734Z,7
2023-03-16T10:11:15.552Z,7
2023-03-16T10:13:21.758Z,6.9
2023-03-16T10:17:34.231Z,6.8
2023-03-16T10:19:40.450Z,6.9
2023-03-16T10:23:56.719Z,7
2023-03-16T10:26:02.964Z,7
2023-03-16T10:28:09.205Z,7
2023-03-16T10:29:13.704Z,7.1
2023-03-16T10:31:20.004Z,7.2
2023-03-16T10:33:26.229Z,7.3
2023-03-16T10:39:47.738Z,7.6
2023-03-16T10:41:54.008Z,7.6
2023-03-16T10:44:00.242Z,7.5
2023-03-16T10:46:06.695Z,7.5
2023-03-16T10:48:12.751Z,7.6
2023-03-16T10:50:18.970Z,7.8
2023-03-16T10:52:28.012Z,8.1
2023-03-16T10:54:34.271Z,8.4
2023-03-16T10:56:40.514Z,8.5
2023-03-16T10:58:46.761Z,8.6
2023-03-16T11:00:53.056Z,8.6
2023-03-16T11:02:59.258Z,9
2023-03-16T11:05:05.523Z,9.2
2023-03-16T11:11:27.118Z,9.7
2023-03-16T11:13:33.395Z,9.4
2023-03-16T11:15:39.648Z,9.5
2023-03-16T11:24:07.531Z,10.4
2023-03-16T11:26:13.839Z,11.1
2023-03-16T11:28:33.785Z,12.3
2023-03-16T11:32:46.394Z,11.1
2023-03-16T11:34:55.565Z,11.5
2023-03-16T11:37:01.742Z,11.8
2023-03-16T11:39:08.043Z,11.9
2023-03-16T11:41:14.321Z,11.4
2023-03-16T11:45:27.406Z,10.8
2023-03-16T11:47:33.182Z,10.5
2023-03-16T11:49:42.273Z,10.5
2023-03-16T11:51:48.567Z,10.6
2023-03-16T11:53:54.845Z,10.5
2023-03-16T11:56:01.149Z,10.3
2023-03-16T11:58:07.416Z,10.3
2023-03-16T12:00:13.726Z,10.3
2023-03-16T12:02:20.493Z,10.3
2023-03-16T12:04:29.168Z,10.1
2023-03-16T12:06:35.375Z,10.1
2023-03-16T12:08:41.678Z,10.1
2023-03-16T12:10:47.930Z,9.8
2023-03-16T12:12:54.232Z,10
2023-03-16T12:15:00.535Z,10.2
2023-03-16T12:17:06.891Z,10.2
2023-03-16T12:23:29.028Z,10.2
2023-03-16T12:24:33.006Z,10.4
2023-03-16T12:26:39.303Z,10.4
2023-03-16T12:28:45.613Z,10.9
2023-03-16T12:37:13.549Z,11.1
2023-03-16T12:39:19.832Z,11.3
2023-03-16T12:41:26.129Z,11.5
2023-03-16T12:43:32.440Z,11.4
2023-03-16T12:45:38.744Z,11.4
2023-03-16T12:47:47.761Z,11.4
2023-03-16T12:49:54.057Z,11.4
2023-03-16T12:52:00.356Z,11.6
2023-03-16T12:54:06.625Z,12
2023-03-16T13:00:25.752Z,12.8
2023-03-16T13:02:34.635Z,12.2
2023-03-16T13:04:41.207Z,12.2
2023-03-16T13:06:47.208Z,12.5
2023-03-16T13:09:05.791Z,13.1
2023-03-16T13:10:59.796Z,12.7
2023-03-16T13:13:06.101Z,13
2023-03-16T13:15:12.408Z,13.3
2023-03-16T13:17:21.532Z,13.4
2023-03-16T13:19:27.817Z,13.6
2023-03-16T13:21:34.086Z,13.5
2023-03-16T13:22:38.652Z,13.5
2023-03-16T13:24:46.782Z,13.5
2023-03-16T13:26:51.244Z,13.5
2023-03-16T13:33:12.950Z,13.2
2023-03-16T13:37:25.552Z,12.9
2023-03-16T13:41:38.173Z,12.2
2023-03-16T13:45:53.628Z,12.6
2023-03-16T13:47:59.865Z,12.5
2023-03-16T13:50:06.187Z,12.6
2023-03-16T13:54:18.783Z,12.7
2023-03-16T13:56:25.069Z,12.8
2023-03-16T14:00:40.495Z,13
2023-03-16T14:02:46.816Z,12.8
2023-03-16T14:04:53.104Z,12.7
2023-03-16T14:06:59.400Z,12.4
2023-03-16T14:09:05.764Z,12.6
2023-03-16T14:11:12.011Z,12.9
2023-03-16T14:17:33.704Z,12.8
2023-03-16T14:20:44.562Z,12.9
2023-03-16T14:22:50.865Z,12.9
2023-03-16T14:24:57.163Z,12.4
2023-03-16T14:27:03.463Z,12.6
2023-03-16T14:31:18.964Z,13
2023-03-16T14:33:25.179Z,13.2
2023-03-16T14:37:37.791Z,13.4
2023-03-16T14:39:44.087Z,13.1
2023-03-16T14:41:50.381Z,13
2023-03-16T14:43:59.512Z,13.4
2023-03-16T14:46:05.870Z,13.4
2023-03-16T14:48:12.126Z,13.1
2023-03-16T14:50:18.430Z,13.3
2023-03-16T14:52:24.709Z,13.3
2023-03-16T14:54:31.006Z,13.1
2023-03-16T14:56:37.331Z,13.1
2023-03-16T14:58:46.446Z,13.1
2023-03-16T15:02:59.121Z,13.6
2023-03-16T15:05:05.361Z,13.6
2023-03-16T15:07:11.650Z,13.9
2023-03-16T15:09:17.941Z,13.8
2023-03-16T15:11:24.290Z,13.7
2023-03-16T15:13:33.368Z,13.8
2023-03-16T15:15:39.691Z,13.9
2023-03-16T15:17:45.972Z,14.4
2023-03-16T15:20:06.190Z,15
2023-03-16T15:24:18.779Z,14.6
2023-03-16T15:26:28.396Z,13.9
2023-03-16T15:28:34.224Z,13.6
2023-03-16T15:30:40.525Z,13.4
2023-03-16T15:32:46.861Z,13
2023-03-16T15:34:53.130Z,13.3
2023-03-16T15:39:05.755Z,14.5
2023-03-16T15:41:14.884Z,14.3
2023-03-16T15:45:27.470Z,15.1
2023-03-16T15:47:33.792Z,14.6
2023-03-16T15:49:47.190Z,14.1
2023-03-16T15:51:46.404Z,14
2023-03-16T15:53:52.692Z,13.8
2023-03-16T15:56:01.843Z,14.7
2023-03-16T15:58:08.121Z,14.5
2023-03-16T16:00:14.439Z,14.3
2023-03-16T16:02:20.741Z,13.4
2023-03-16T16:04:27.139Z,13.2
2023-03-16T16:06:33.348Z,12.8
2023-03-16T16:16:07.630Z,12.5
2023-03-16T16:18:21.263Z,12.4
2023-03-16T16:20:20.108Z,12.4
2023-03-16T16:24:35.505Z,12.3
2023-03-16T16:28:48.123Z,13.1
2023-03-16T16:30:54.422Z,13.5
2023-03-16T16:37:13.332Z,13.9
2023-03-16T16:39:22.471Z,13.6
2023-03-16T16:41:28.741Z,13.2
2023-03-16T16:43:35.087Z,13.1
2023-03-16T16:47:47.664Z,13.6
2023-03-16T16:49:53.969Z,13.2
2023-03-16T16:52:00.291Z,12.8
2023-03-16T16:54:09.405Z,13.2
2023-03-16T16:56:15.684Z,13
2023-03-16T16:58:24.449Z,12.8
2023-03-16T17:00:28.290Z,12.4
2023-03-16T17:06:47.206Z,12
2023-03-16T17:08:56.339Z,11.9
2023-03-16T17:11:02.628Z,11.8
2023-03-16T17:14:13.484Z,11.7
2023-03-16T17:16:19.809Z,11.7
2023-03-16T17:18:26.062Z,11.6
2023-03-16T17:20:32.380Z,11.5
2023-03-16T17:22:41.481Z,11.4
2023-03-16T17:24:47.802Z,11.3
2023-03-16T17:26:54.095Z,11.3
2023-03-16T17:29:00.378Z,11.2
2023-03-16T17:31:06.741Z,11.1
2023-03-16T17:33:12.969Z,11.1
2023-03-16T17:35:19.269Z,11
2023-03-16T17:37:28.382Z,10.8
2023-03-16T17:39:34.742Z,10.8
2023-03-16T17:41:40.985Z,10.7
2023-03-16T17:43:47.270Z,10.7
2023-03-16T17:45:53.680Z,10.6
2023-03-16T17:47:59.856Z,10.6
2023-03-16T17:52:15.302Z,10.5
2023-03-16T17:54:21.521Z,10.5
2023-03-16T17:56:27.829Z,10.4
2023-03-16T17:58:34.088Z,10.4
2023-03-16T18:04:52.959Z,10.2
2023-03-16T18:09:08.326Z,10.1
2023-03-16T18:11:14.616Z,10
2023-03-16T18:12:19.138Z,10
2023-03-16T18:14:25.508Z,10
2023-03-16T18:18:38.035Z,10
2023-03-16T18:20:47.096Z,10
2023-03-16T18:22:53.495Z,9.9
2023-03-16T18:24:59.654Z,10
2023-03-16T18:27:08.306Z,9.9
2023-03-16T18:29:12.227Z,9.8
2023-03-16T18:31:18.578Z,9.8
2023-03-16T18:33:24.770Z,9.7
2023-03-16T18:35:33.948Z,9.6
2023-03-16T18:37:40.154Z,9.6
2023-03-16T18:39:46.440Z,9.8
2023-03-16T18:41:52.711Z,9.7
2023-03-16T18:43:59.009Z,9.7
2023-03-16T18:46:05.272Z,9.5
2023-03-16T18:50:20.639Z,9.4
2023-03-16T18:52:26.937Z,9.4
2023-03-16T18:54:33.191Z,9.4
2023-03-16T18:56:39.686Z,9.3
2023-03-16T18:58:45.750Z,9.4
2023-03-16T19:00:52.191Z,9.3
2023-03-16T19:02:58.323Z,9.4
2023-03-16T19:07:13.660Z,9.2
2023-03-16T19:11:45.722Z,9.1
2023-03-16T19:13:54.520Z,9.1
2023-03-16T19:15:58.310Z,9
2023-03-16T19:18:07.401Z,9
2023-03-16T19:20:13.632Z,9
2023-03-16T19:22:19.911Z,9
2023-03-16T19:24:26.184Z,9
2023-03-16T19:26:32.434Z,9.1
2023-03-16T19:28:39.385Z,9
2023-03-16T19:30:45.668Z,9
2023-03-16T19:32:54.837Z,9
2023-03-16T19:35:01.015Z,9
2023-03-16T19:39:13.544Z,8.9
2023-03-16T19:47:41.429Z,8.8
2023-03-16T19:49:47.673Z,8.7
2023-03-16T19:51:53.963Z,8.6
2023-03-16T19:56:06.465Z,8.5
2023-03-16T20:02:28.098Z,8.4
2023-03-16T20:04:34.406Z,8.4
2023-03-16T20:07:45.122Z,8.2
2023-03-16T20:16:12.957Z,8.2
2023-03-16T20:20:25.490Z,8.2
2023-03-16T20:22:31.732Z,8.1
2023-03-16T20:24:37.978Z,8.2
2023-03-16T20:26:44.245Z,8.3
2023-03-16T20:28:50.481Z,8.2
2023-03-16T20:30:59.607Z,8.2
2023-03-16T20:33:05.790Z,8.2
2023-03-16T20:39:24.546Z,8.2
2023-03-16T20:45:46.230Z,8.3
2023-03-16T20:47:52.330Z,8.3
2023-03-16T20:49:58.590Z,8.3
2023-03-16T20:52:04.868Z,8.3
2023-03-16T20:54:11.120Z,8.4
2023-03-16T20:56:17.364Z,8.4
2023-03-16T20:58:23.641Z,8.5
2023-03-16T21:00:32.662Z,8.5
2023-03-16T21:02:38.921Z,8.6
2023-03-16T21:04:45.220Z,8.6
2023-03-16T21:05:49.685Z,8.7
2023-03-16T21:07:55.952Z,8.6
2023-03-16T21:14:17.528Z,8.5
2023-03-16T21:16:23.858Z,8.5
2023-03-16T21:18:30.039Z,8.6
2023-03-16T21:24:48.838Z,8.6
2023-03-16T21:26:55.028Z,8.5
2023-03-16T21:29:04.123Z,8.5
2023-03-16T21:33:16.621Z,8.6
2023-03-16T21:45:56.929Z,8.5
2023-03-16T21:48:03.192Z,8.4
2023-03-16T21:52:15.673Z,8.2
2023-03-16T21:54:21.945Z,8.2
2023-03-16T21:56:28.175Z,8.2
2023-03-16T21:58:37.254Z,8.3
2023-03-16T22:00:43.506Z,8.3
2023-03-16T22:02:50.010Z,8.3
2023-03-16T22:03:54.295Z,8.2
2023-03-16T22:08:06.751Z,8.3
2023-03-16T22:10:13.006Z,8.1
2023-03-16T22:12:22.053Z,8.1
2023-03-16T22:14:28.312Z,8.1
2023-03-16T22:16:34.647Z,8.1
2023-03-16T22:20:48.631Z,8.2
2023-03-16T22:22:54.813Z,8
2023-03-16T22:25:01.091Z,8.1
2023-03-16T22:27:10.126Z,8.1
2023-03-16T22:29:16.382Z,8.1
2023-03-16T22:33:28.874Z,8.1
2023-03-16T22:35:35.139Z,8.1
2023-03-16T22:39:47.624Z,7.9
2023-03-16T22:41:56.649Z,8
2023-03-16T22:44:02.903Z,7.9
2023-03-16T22:46:09.165Z,8
2023-03-16T22:48:15.348Z,7.8
2023-03-16T22:52:27.859Z,7.9
2023-03-16T22:54:34.081Z,8
2023-03-16T22:56:43.145Z,7.9
2023-03-16T22:58:49.368Z,8
2023-03-16T23:00:55.655Z,7.9
2023-03-16T23:03:21.369Z,7.8
2023-03-16T23:07:33.868Z,7.9
2023-03-16T23:09:42.903Z,7.9
2023-03-16T23:13:55.422Z,7.9
2023-03-16T23:16:01.644Z,7.8
2023-03-16T23:18:07.870Z,7.8
2023-03-16T23:22:20.375Z,7.8
2023-03-16T23:30:48.176Z,7.8
2023-03-16T23:32:54.565Z,7.9
2023-03-16T23:35:00.663Z,7.9
2023-03-16T23:37:06.893Z,7.8
2023-03-16T23:45:34.710Z,7.6
2023-03-16T23:49:47.240Z,7.7
2023-03-16T23:51:53.484Z,7.7
2023-03-16T23:58:15.012Z,7.7
2023-03-16T23:59:19.538Z,7.8
